Aviation Digital Data Service (ADDS)

Output produced by METARs form (1639 UTC 22 June 2017)
found at http://aviationweather.gov/adds/metars/
 
KMSS 221126Z 2212/2312 21006KT P6SM FEW200 
     FM221900 23010KT P6SM SCT150 
     FM222300 22006KT P6SM VCSH BKN080 
     FM230100 21004KT P6SM -SHRA BKN060